sensor_id;sensor_type;location;lat;lon;timestamp;pressure;altitude;pressure_sealevel;temperature;humidity
62926;BME280;55732;52.248;-0.844;2022-07-15T00:02:03;101668.98;;;16.04;55.82
62926;BME280;55732;52.248;-0.844;2022-07-15T00:04:28;101674.34;;;16.01;56.11
62926;BME280;55732;52.248;-0.844;2022-07-15T00:06:54;101674.36;;;15.97;56.13
62926;BME280;55732;52.248;-0.844;2022-07-15T00:09:19;101675.27;;;15.93;56.12
62926;BME280;55732;52.248;-0.844;2022-07-15T00:11:44;101669.61;;;15.91;56.25
62926;BME280;55732;52.248;-0.844;2022-07-15T00:14:10;101663.58;;;15.87;56.43
62926;BME280;55732;52.248;-0.844;2022-07-15T00:16:35;101660.91;;;15.85;56.73
62926;BME280;55732;52.248;-0.844;2022-07-15T00:19:01;101657.56;;;15.82;56.78
62926;BME280;55732;52.248;-0.844;2022-07-15T00:21:27;101649.27;;;15.72;56.88
62926;BME280;55732;52.248;-0.844;2022-07-15T00:23:52;101653.35;;;15.72;57.03
62926;BME280;55732;52.248;-0.844;2022-07-15T00:26:18;101655.31;;;15.70;57.01
62926;BME280;55732;52.248;-0.844;2022-07-15T00:28:43;101653.02;;;15.69;57.15
62926;BME280;55732;52.248;-0.844;2022-07-15T00:31:08;101647.35;;;15.68;57.34
62926;BME280;55732;52.248;-0.844;2022-07-15T00:33:34;101645.06;;;15.66;57.30
62926;BME280;55732;52.248;-0.844;2022-07-15T00:35:59;101644.88;;;15.64;57.55
62926;BME280;55732;52.248;-0.844;2022-07-15T00:38:24;101644.71;;;15.61;57.28
62926;BME280;55732;52.248;-0.844;2022-07-15T00:40:51;101642.58;;;15.60;57.67
62926;BME280;55732;52.248;-0.844;2022-07-15T00:43:18;101644.21;;;15.57;57.81
62926;BME280;55732;52.248;-0.844;2022-07-15T00:45:44;101646.69;;;15.54;57.80
62926;BME280;55732;52.248;-0.844;2022-07-15T00:48:10;101642.59;;;15.52;57.79
62926;BME280;55732;52.248;-0.844;2022-07-15T00:50:36;101645.63;;;15.51;57.88
62926;BME280;55732;52.248;-0.844;2022-07-15T00:53:07;101639.41;;;15.50;57.97
62926;BME280;55732;52.248;-0.844;2022-07-15T00:55:44;101640.30;;;15.49;58.03
62926;BME280;55732;52.248;-0.844;2022-07-15T00:58:18;101643.85;;;15.47;58.03
62926;BME280;55732;52.248;-0.844;2022-07-15T01:00:45;101641.58;;;15.42;58.19
62926;BME280;55732;52.248;-0.844;2022-07-15T01:03:13;101643.02;;;15.36;58.32
62926;BME280;55732;52.248;-0.844;2022-07-15T01:05:38;101646.95;;;15.32;58.40
62926;BME280;55732;52.248;-0.844;2022-07-15T01:08:04;101646.24;;;15.29;58.60
62926;BME280;55732;52.248;-0.844;2022-07-15T01:10:29;101646.60;;;15.27;58.70
62926;BME280;55732;52.248;-0.844;2022-07-15T01:12:55;101644.13;;;15.24;58.57
62926;BME280;55732;52.248;-0.844;2022-07-15T01:15:20;101643.08;;;15.21;58.98
62926;BME280;55732;52.248;-0.844;2022-07-15T01:17:46;101638.30;;;15.20;59.08
62926;BME280;55732;52.248;-0.844;2022-07-15T01:20:14;101634.58;;;15.18;59.12
62926;BME280;55732;52.248;-0.844;2022-07-15T01:22:40;101628.54;;;15.18;59.19
62926;BME280;55732;52.248;-0.844;2022-07-15T01:25:06;101626.06;;;15.16;59.32
62926;BME280;55732;52.248;-0.844;2022-07-15T01:27:32;101621.80;;;15.15;59.36
62926;BME280;55732;52.248;-0.844;2022-07-15T01:29:58;101620.92;;;15.12;59.59
62926;BME280;55732;52.248;-0.844;2022-07-15T01:32:25;101621.45;;;15.10;59.62
62926;BME280;55732;52.248;-0.844;2022-07-15T01:34:50;101618.83;;;15.06;59.74
62926;BME280;55732;52.248;-0.844;2022-07-15T01:37:17;101620.95;;;15.04;59.79
62926;BME280;55732;52.248;-0.844;2022-07-15T01:39:43;101619.01;;;15.01;59.86
62926;BME280;55732;52.248;-0.844;2022-07-15T01:42:09;101612.09;;;14.99;59.97
62926;BME280;55732;52.248;-0.844;2022-07-15T01:44:34;101612.48;;;14.96;60.13
62926;BME280;55732;52.248;-0.844;2022-07-15T01:47:00;101613.01;;;14.93;60.41
62926;BME280;55732;52.248;-0.844;2022-07-15T01:49:26;101611.77;;;14.93;60.60
62926;BME280;55732;52.248;-0.844;2022-07-15T01:51:56;101613.19;;;14.93;60.46
62926;BME280;55732;52.248;-0.844;2022-07-15T01:54:23;101603.09;;;14.87;60.53
62926;BME280;55732;52.248;-0.844;2022-07-15T01:56:50;101616.90;;;14.91;60.59
62926;BME280;55732;52.248;-0.844;2022-07-15T01:59:16;101615.67;;;14.87;60.45
62926;BME280;55732;52.248;-0.844;2022-07-15T02:01:42;101623.50;;;14.84;60.82
62926;BME280;55732;52.248;-0.844;2022-07-15T02:04:08;101625.45;;;14.83;61.05
62926;BME280;55732;52.248;-0.844;2022-07-15T02:06:34;101623.50;;;14.81;61.13
62926;BME280;55732;52.248;-0.844;2022-07-15T02:09:00;101628.45;;;14.80;61.00
62926;BME280;55732;52.248;-0.844;2022-07-15T02:11:26;101624.91;;;14.77;61.38
62926;BME280;55732;52.248;-0.844;2022-07-15T02:13:51;101625.45;;;14.78;61.19
62926;BME280;55732;52.248;-0.844;2022-07-15T02:16:19;101627.06;;;14.74;61.25
62926;BME280;55732;52.248;-0.844;2022-07-15T02:18:44;101616.95;;;14.68;61.32
62926;BME280;55732;52.248;-0.844;2022-07-15T02:21:10;101616.77;;;14.64;61.31
62926;BME280;55732;52.248;-0.844;2022-07-15T02:23:35;101621.77;;;14.61;61.57
62926;BME280;55732;52.248;-0.844;2022-07-15T02:26:01;101624.60;;;14.59;61.51
62926;BME280;55732;52.248;-0.844;2022-07-15T02:28:26;101626.54;;;14.58;61.71
62926;BME280;55732;52.248;-0.844;2022-07-15T02:30:51;101625.48;;;14.55;61.72
62926;BME280;55732;52.248;-0.844;2022-07-15T02:33:17;101629.73;;;14.55;61.90
62926;BME280;55732;52.248;-0.844;2022-07-15T02:35:42;101634.71;;;14.50;61.77
62926;BME280;55732;52.248;-0.844;2022-07-15T02:38:08;101643.04;;;14.45;62.12
62926;BME280;55732;52.248;-0.844;2022-07-15T02:40:34;101641.61;;;14.41;62.22
62926;BME280;55732;52.248;-0.844;2022-07-15T02:43:01;101643.36;;;14.37;62.47
62926;BME280;55732;52.248;-0.844;2022-07-15T02:45:29;101640.34;;;14.35;62.37
62926;BME280;55732;52.248;-0.844;2022-07-15T02:47:55;101644.06;;;14.31;62.57
62926;BME280;55732;52.248;-0.844;2022-07-15T02:50:21;101646.36;;;14.28;62.49
62926;BME280;55732;52.248;-0.844;2022-07-15T02:52:47;101646.90;;;14.25;62.62
62926;BME280;55732;52.248;-0.844;2022-07-15T02:55:13;101657.34;;;14.23;62.62
62926;BME280;55732;52.248;-0.844;2022-07-15T02:57:40;101655.92;;;14.22;62.72
62926;BME280;55732;52.248;-0.844;2022-07-15T03:00:08;101651.66;;;14.18;62.76
62926;BME280;55732;52.248;-0.844;2022-07-15T03:02:34;101655.90;;;14.17;62.92
62926;BME280;55732;52.248;-0.844;2022-07-15T03:05:00;101656.09;;;14.16;62.96
62926;BME280;55732;52.248;-0.844;2022-07-15T03:07:28;101656.27;;;14.16;63.16
62926;BME280;55732;52.248;-0.844;2022-07-15T03:09:54;101653.26;;;14.16;63.16
62926;BME280;55732;52.248;-0.844;2022-07-15T03:12:20;101648.11;;;14.12;63.33
62926;BME280;55732;52.248;-0.844;2022-07-15T03:14:45;101648.47;;;14.13;63.23
62926;BME280;55732;52.248;-0.844;2022-07-15T03:17:11;101662.46;;;14.17;63.28
62926;BME280;55732;52.248;-0.844;2022-07-15T03:19:36;101658.05;;;14.16;63.46
62926;BME280;55732;52.248;-0.844;2022-07-15T03:22:02;101664.97;;;14.15;63.43
62926;BME280;55732;52.248;-0.844;2022-07-15T03:24:27;101661.23;;;14.14;63.24
62926;BME280;55732;52.248;-0.844;2022-07-15T03:26:53;101656.80;;;14.13;63.50
62926;BME280;55732;52.248;-0.844;2022-07-15T03:29:18;101658.77;;;14.14;63.34
62926;BME280;55732;52.248;-0.844;2022-07-15T03:31:45;101659.64;;;14.12;63.59
62926;BME280;55732;52.248;-0.844;2022-07-15T03:34:11;101655.20;;;14.10;63.62
62926;BME280;55732;52.248;-0.844;2022-07-15T03:36:37;101658.74;;;14.09;63.60
62926;BME280;55732;52.248;-0.844;2022-07-15T03:39:04;101662.64;;;14.10;63.48
62926;BME280;55732;52.248;-0.844;2022-07-15T03:41:30;101662.63;;;14.08;63.64
62926;BME280;55732;52.248;-0.844;2022-07-15T03:43:55;101658.56;;;14.08;63.59
62926;BME280;55732;52.248;-0.844;2022-07-15T03:46:21;101655.00;;;14.06;63.54
62926;BME280;55732;52.248;-0.844;2022-07-15T03:48:46;101650.40;;;14.06;63.58
62926;BME280;55732;52.248;-0.844;2022-07-15T03:51:12;101645.10;;;14.06;63.90
62926;BME280;55732;52.248;-0.844;2022-07-15T03:53:37;101644.73;;;14.08;63.96
62926;BME280;55732;52.248;-0.844;2022-07-15T03:56:03;101641.38;;;14.08;63.71
62926;BME280;55732;52.248;-0.844;2022-07-15T03:58:28;101640.49;;;14.08;63.84
62926;BME280;55732;52.248;-0.844;2022-07-15T04:00:54;101636.79;;;14.09;63.52
62926;BME280;55732;52.248;-0.844;2022-07-15T04:03:19;101641.56;;;14.10;63.66
62926;BME280;55732;52.248;-0.844;2022-07-15T04:05:45;101644.59;;;14.11;63.87
62926;BME280;55732;52.248;-0.844;2022-07-15T04:08:10;101646.70;;;14.12;63.71
62926;BME280;55732;52.248;-0.844;2022-07-15T04:10:36;101651.14;;;14.12;63.71
62926;BME280;55732;52.248;-0.844;2022-07-15T04:13:02;101632.89;;;14.06;63.87
62926;BME280;55732;52.248;-0.844;2022-07-15T04:15:28;101639.27;;;14.10;63.80
62926;BME280;55732;52.248;-0.844;2022-07-15T04:17:54;101642.45;;;14.07;63.61
62926;BME280;55732;52.248;-0.844;2022-07-15T04:20:20;101637.48;;;14.01;63.65
62926;BME280;55732;52.248;-0.844;2022-07-15T04:22:45;101637.64;;;13.95;63.90
62926;BME280;55732;52.248;-0.844;2022-07-15T04:25:18;101634.80;;;13.95;64.12
62926;BME280;55732;52.248;-0.844;2022-07-15T04:27:44;101636.05;;;13.97;64.39
62926;BME280;55732;52.248;-0.844;2022-07-15T04:30:10;101619.93;;;13.89;64.51
62926;BME280;55732;52.248;-0.844;2022-07-15T04:32:37;101636.61;;;14.02;64.38
62926;BME280;55732;52.248;-0.844;2022-07-15T04:35:02;101632.70;;;14.04;64.31
62926;BME280;55732;52.248;-0.844;2022-07-15T04:37:28;101631.45;;;14.06;64.34
62926;BME280;55732;52.248;-0.844;2022-07-15T04:39:55;101638.90;;;14.06;64.61
62926;BME280;55732;52.248;-0.844;2022-07-15T04:42:21;101618.00;;;14.05;64.32
62926;BME280;55732;52.248;-0.844;2022-07-15T04:44:47;101639.80;;;14.21;64.57
62926;BME280;55732;52.248;-0.844;2022-07-15T04:47:13;101633.61;;;14.26;64.44
62926;BME280;55732;52.248;-0.844;2022-07-15T04:49:39;101634.69;;;14.47;63.98
62926;BME280;55732;52.248;-0.844;2022-07-15T04:52:23;101629.30;;;14.94;63.00
62926;BME280;55732;52.248;-0.844;2022-07-15T04:54:53;101635.09;;;15.21;62.27
62926;BME280;55732;52.248;-0.844;2022-07-15T04:57:19;101632.17;;;15.43;61.76
62926;BME280;55732;52.248;-0.844;2022-07-15T04:59:45;101629.71;;;15.78;60.96
62926;BME280;55732;52.248;-0.844;2022-07-15T05:02:10;101629.88;;;16.07;60.33
62926;BME280;55732;52.248;-0.844;2022-07-15T05:04:36;101630.30;;;16.21;59.88
62926;BME280;55732;52.248;-0.844;2022-07-15T05:07:02;101633.44;;;16.29;59.81
62926;BME280;55732;52.248;-0.844;2022-07-15T05:09:27;101631.40;;;16.39;59.46
62926;BME280;55732;52.248;-0.844;2022-07-15T05:11:53;101629.88;;;16.52;59.48
62926;BME280;55732;52.248;-0.844;2022-07-15T05:14:18;101630.70;;;16.61;59.07
62926;BME280;55732;52.248;-0.844;2022-07-15T05:16:43;101628.17;;;16.65;58.76
62926;BME280;55732;52.248;-0.844;2022-07-15T05:19:09;101622.25;;;16.74;58.41
62926;BME280;55732;52.248;-0.844;2022-07-15T05:21:34;101624.96;;;16.66;58.24
62926;BME280;55732;52.248;-0.844;2022-07-15T05:24:00;101626.98;;;16.56;58.08
62926;BME280;55732;52.248;-0.844;2022-07-15T05:26:25;101627.62;;;16.45;58.03
62926;BME280;55732;52.248;-0.844;2022-07-15T05:28:51;101626.55;;;16.25;58.44
62926;BME280;55732;52.248;-0.844;2022-07-15T05:31:16;101624.15;;;16.12;58.75
62926;BME280;55732;52.248;-0.844;2022-07-15T05:33:42;101620.48;;;16.06;58.84
62926;BME280;55732;52.248;-0.844;2022-07-15T05:36:11;101619.60;;;16.05;59.04
62926;BME280;55732;52.248;-0.844;2022-07-15T05:38:37;101621.31;;;16.11;59.10
62926;BME280;55732;52.248;-0.844;2022-07-15T05:41:03;101619.41;;;16.51;58.44
62926;BME280;55732;52.248;-0.844;2022-07-15T05:43:29;101624.98;;;16.99;57.68
62926;BME280;55732;52.248;-0.844;2022-07-15T05:45:54;101617.65;;;17.02;57.40
62926;BME280;55732;52.248;-0.844;2022-07-15T05:48:20;101621.52;;;17.07;57.41
62926;BME280;55732;52.248;-0.844;2022-07-15T05:50:45;101600.63;;;17.13;57.01
62926;BME280;55732;52.248;-0.844;2022-07-15T05:53:10;101623.33;;;17.63;56.33
62926;BME280;55732;52.248;-0.844;2022-07-15T05:55:36;101618.86;;;17.77;55.85
62926;BME280;55732;52.248;-0.844;2022-07-15T05:58:05;101624.94;;;18.11;55.34
62926;BME280;55732;52.248;-0.844;2022-07-15T06:00:31;101621.70;;;18.24;54.91
62926;BME280;55732;52.248;-0.844;2022-07-15T06:02:56;101623.23;;;18.28;54.83
62926;BME280;55732;52.248;-0.844;2022-07-15T06:05:22;101622.46;;;18.64;54.22
62926;BME280;55732;52.248;-0.844;2022-07-15T06:07:47;101624.20;;;18.78;53.85
62926;BME280;55732;52.248;-0.844;2022-07-15T06:10:13;101626.53;;;18.87;53.54
62926;BME280;55732;52.248;-0.844;2022-07-15T06:12:38;101623.19;;;18.93;53.09
62926;BME280;55732;52.248;-0.844;2022-07-15T06:15:04;101625.58;;;18.89;53.53
62926;BME280;55732;52.248;-0.844;2022-07-15T06:17:31;101628.55;;;18.83;53.43
62926;BME280;55732;52.248;-0.844;2022-07-15T06:19:56;101624.58;;;18.76;53.41
62926;BME280;55732;52.248;-0.844;2022-07-15T06:22:21;101626.14;;;18.78;53.57
62926;BME280;55732;52.248;-0.844;2022-07-15T06:24:47;101627.17;;;18.81;53.24
62926;BME280;55732;52.248;-0.844;2022-07-15T06:27:12;101625.52;;;18.84;53.05
62926;BME280;55732;52.248;-0.844;2022-07-15T06:29:38;101628.05;;;18.82;52.99
62926;BME280;55732;52.248;-0.844;2022-07-15T06:32:03;101628.38;;;18.83;53.13
62926;BME280;55732;52.248;-0.844;2022-07-15T06:34:29;101627.45;;;18.86;53.06
62926;BME280;55732;52.248;-0.844;2022-07-15T06:36:54;101631.34;;;18.96;53.00
62926;BME280;55732;52.248;-0.844;2022-07-15T06:39:20;101627.88;;;19.00;52.94
62926;BME280;55732;52.248;-0.844;2022-07-15T06:41:45;101629.94;;;19.03;53.02
62926;BME280;55732;52.248;-0.844;2022-07-15T06:44:11;101632.15;;;19.00;52.83
62926;BME280;55732;52.248;-0.844;2022-07-15T06:46:36;101624.64;;;18.92;52.87
62926;BME280;55732;52.248;-0.844;2022-07-15T06:49:02;101626.73;;;18.85;53.07
62926;BME280;55732;52.248;-0.844;2022-07-15T06:51:27;101617.23;;;18.87;53.28
62926;BME280;55732;52.248;-0.844;2022-07-15T06:53:53;101627.09;;;18.94;53.04
62926;BME280;55732;52.248;-0.844;2022-07-15T06:56:18;101627.72;;;18.99;53.21
62926;BME280;55732;52.248;-0.844;2022-07-15T06:58:43;101627.05;;;19.06;53.04
62926;BME280;55732;52.248;-0.844;2022-07-15T07:01:09;101626.23;;;19.20;52.73
62926;BME280;55732;52.248;-0.844;2022-07-15T07:03:35;101620.46;;;19.49;52.27
62926;BME280;55732;52.248;-0.844;2022-07-15T07:06:00;101618.85;;;19.66;52.21
62926;BME280;55732;52.248;-0.844;2022-07-15T07:08:26;101613.74;;;19.86;51.50
62926;BME280;55732;52.248;-0.844;2022-07-15T07:10:52;101615.59;;;19.99;51.20
62926;BME280;55732;52.248;-0.844;2022-07-15T07:13:18;101618.11;;;20.20;51.06
62926;BME280;55732;52.248;-0.844;2022-07-15T07:15:43;101620.92;;;20.72;50.13
62926;BME280;55732;52.248;-0.844;2022-07-15T07:18:09;101621.55;;;21.21;49.06
62926;BME280;55732;52.248;-0.844;2022-07-15T07:20:36;101621.09;;;21.49;48.56
62926;BME280;55732;52.248;-0.844;2022-07-15T07:23:01;101617.83;;;21.45;48.23
62926;BME280;55732;52.248;-0.844;2022-07-15T07:25:27;101612.89;;;21.42;48.16
62926;BME280;55732;52.248;-0.844;2022-07-15T07:27:52;101607.88;;;21.48;47.86
62926;BME280;55732;52.248;-0.844;2022-07-15T07:30:18;101612.09;;;21.51;47.66
62926;BME280;55732;52.248;-0.844;2022-07-15T07:32:44;101608.90;;;21.49;47.65
62926;BME280;55732;52.248;-0.844;2022-07-15T07:35:09;101612.08;;;21.57;47.45
62926;BME280;55732;52.248;-0.844;2022-07-15T07:37:35;101605.77;;;21.81;46.96
62926;BME280;55732;52.248;-0.844;2022-07-15T07:40:04;101605.35;;;22.17;46.55
62926;BME280;55732;52.248;-0.844;2022-07-15T07:42:30;101603.55;;;22.95;45.00
62926;BME280;55732;52.248;-0.844;2022-07-15T07:44:55;101599.70;;;23.60;44.07
62926;BME280;55732;52.248;-0.844;2022-07-15T07:47:21;101599.71;;;24.27;42.77
62926;BME280;55732;52.248;-0.844;2022-07-15T07:49:47;101601.96;;;24.58;42.33
62926;BME280;55732;52.248;-0.844;2022-07-15T07:52:13;101599.16;;;24.69;42.02
62926;BME280;55732;52.248;-0.844;2022-07-15T07:54:40;101596.33;;;24.60;41.38
62926;BME280;55732;52.248;-0.844;2022-07-15T07:57:06;101593.06;;;24.97;40.81
62926;BME280;55732;52.248;-0.844;2022-07-15T07:59:32;101593.23;;;24.89;40.65
62926;BME280;55732;52.248;-0.844;2022-07-15T08:01:58;101591.61;;;24.69;40.61
62926;BME280;55732;52.248;-0.844;2022-07-15T08:04:23;101588.86;;;24.53;40.80
62926;BME280;55732;52.248;-0.844;2022-07-15T08:06:49;101586.35;;;24.62;40.01
62926;BME280;55732;52.248;-0.844;2022-07-15T08:09:15;101590.33;;;24.81;39.72
62926;BME280;55732;52.248;-0.844;2022-07-15T08:11:41;101591.14;;;24.88;39.45
62926;BME280;55732;52.248;-0.844;2022-07-15T08:14:08;101588.71;;;25.09;39.35
62926;BME280;55732;52.248;-0.844;2022-07-15T08:16:33;101584.88;;;25.49;38.42
62926;BME280;55732;52.248;-0.844;2022-07-15T08:18:59;101581.71;;;25.93;38.07
62926;BME280;55732;52.248;-0.844;2022-07-15T08:21:24;101582.05;;;26.22;37.79
62926;BME280;55732;52.248;-0.844;2022-07-15T08:23:50;101582.09;;;28.10;35.22
62926;BME280;55732;52.248;-0.844;2022-07-15T08:26:16;101578.99;;;29.99;33.08
62926;BME280;55732;52.248;-0.844;2022-07-15T08:28:48;101581.89;;;31.48;30.95
62926;BME280;55732;52.248;-0.844;2022-07-15T08:31:13;101570.90;;;32.25;29.70
62926;BME280;55732;52.248;-0.844;2022-07-15T08:33:39;101578.03;;;33.17;28.42
62926;BME280;55732;52.248;-0.844;2022-07-15T08:36:04;101568.91;;;34.80;26.28
62926;BME280;55732;52.248;-0.844;2022-07-15T08:38:30;101568.30;;;36.46;24.69
62926;BME280;55732;52.248;-0.844;2022-07-15T08:40:56;101564.41;;;38.02;23.14
62926;BME280;55732;52.248;-0.844;2022-07-15T08:43:22;101562.61;;;38.90;22.00
62926;BME280;55732;52.248;-0.844;2022-07-15T08:45:48;101557.18;;;39.70;21.27
62926;BME280;55732;52.248;-0.844;2022-07-15T08:48:14;101556.77;;;40.43;20.14
62926;BME280;55732;52.248;-0.844;2022-07-15T08:50:42;101553.23;;;41.18;19.04
62926;BME280;55732;52.248;-0.844;2022-07-15T08:53:08;101548.86;;;41.85;18.41
62926;BME280;55732;52.248;-0.844;2022-07-15T08:55:34;101544.48;;;42.36;17.76
62926;BME280;55732;52.248;-0.844;2022-07-15T08:57:59;101545.71;;;43.06;17.36
62926;BME280;55732;52.248;-0.844;2022-07-15T09:00:26;101543.83;;;43.46;16.51
62926;BME280;55732;52.248;-0.844;2022-07-15T09:02:59;101540.30;;;43.49;15.96
62926;BME280;55732;52.248;-0.844;2022-07-15T09:08:14;101528.33;;;44.03;15.52
62926;BME280;55732;52.248;-0.844;2022-07-15T09:10:56;101530.06;;;44.67;14.85
62926;BME280;55732;52.248;-0.844;2022-07-15T09:16:04;101525.57;;;45.24;14.21
62926;BME280;55732;52.248;-0.844;2022-07-15T09:18:33;101526.15;;;45.03;14.11
62926;BME280;55732;52.248;-0.844;2022-07-15T09:21:00;101524.63;;;45.00;14.08
62926;BME280;55732;52.248;-0.844;2022-07-15T09:23:28;101520.33;;;45.05;13.96
62926;BME280;55732;52.248;-0.844;2022-07-15T09:25:57;101509.98;;;45.25;13.86
62926;BME280;55732;52.248;-0.844;2022-07-15T09:28:35;101504.22;;;45.55;13.67
62926;BME280;55732;52.248;-0.844;2022-07-15T09:31:01;101508.98;;;45.87;13.38
62926;BME280;55732;52.248;-0.844;2022-07-15T09:33:45;101507.38;;;45.88;13.25
62926;BME280;55732;52.248;-0.844;2022-07-15T09:36:17;101506.30;;;45.86;13.31
62926;BME280;55732;52.248;-0.844;2022-07-15T09:38:55;101507.91;;;46.15;12.96
62926;BME280;55732;52.248;-0.844;2022-07-15T09:44:07;101507.70;;;46.37;12.56
62926;BME280;55732;52.248;-0.844;2022-07-15T09:46:53;101503.91;;;46.39;12.43
62926;BME280;55732;52.248;-0.844;2022-07-15T09:54:16;101496.56;;;46.06;12.22
62926;BME280;55732;52.248;-0.844;2022-07-15T09:56:44;101492.66;;;45.93;12.42
62926;BME280;55732;52.248;-0.844;2022-07-15T09:59:10;101490.86;;;45.93;12.37
62926;BME280;55732;52.248;-0.844;2022-07-15T10:01:36;101490.48;;;45.85;12.28
62926;BME280;55732;52.248;-0.844;2022-07-15T10:04:03;101488.38;;;45.55;12.36
62926;BME280;55732;52.248;-0.844;2022-07-15T10:06:31;101484.35;;;45.32;12.44
62926;BME280;55732;52.248;-0.844;2022-07-15T10:08:57;101483.89;;;45.03;12.47
62926;BME280;55732;52.248;-0.844;2022-07-15T10:11:23;101483.30;;;44.86;12.65
62926;BME280;55732;52.248;-0.844;2022-07-15T10:21:40;101464.35;;;43.63;13.15
62926;BME280;55732;52.248;-0.844;2022-07-15T10:24:40;101466.98;;;43.13;13.28
62926;BME280;55732;52.248;-0.844;2022-07-15T10:29:44;101456.67;;;42.15;14.02
62926;BME280;55732;52.248;-0.844;2022-07-15T10:32:10;101458.57;;;41.74;14.40
62926;BME280;55732;52.248;-0.844;2022-07-15T10:34:36;101459.00;;;40.44;15.33
62926;BME280;55732;52.248;-0.844;2022-07-15T10:37:09;101458.88;;;38.61;16.50
62926;BME280;55732;52.248;-0.844;2022-07-15T10:39:56;101451.95;;;37.42;17.20
62926;BME280;55732;52.248;-0.844;2022-07-15T10:42:26;101457.34;;;36.01;18.38
62926;BME280;55732;52.248;-0.844;2022-07-15T10:45:04;101450.14;;;35.02;19.17
62926;BME280;55732;52.248;-0.844;2022-07-15T10:47:31;101451.05;;;33.90;20.36
62926;BME280;55732;52.248;-0.844;2022-07-15T10:49:57;101449.64;;;33.16;21.22
62926;BME280;55732;52.248;-0.844;2022-07-15T10:52:31;101455.63;;;32.54;22.16
62926;BME280;55732;52.248;-0.844;2022-07-15T11:03:01;101444.11;;;30.94;24.15
62926;BME280;55732;52.248;-0.844;2022-07-15T11:05:27;101443.08;;;30.80;24.29
62926;BME280;55732;52.248;-0.844;2022-07-15T11:07:52;101444.26;;;30.64;24.57
62926;BME280;55732;52.248;-0.844;2022-07-15T11:10:19;101442.45;;;30.49;24.65
62926;BME280;55732;52.248;-0.844;2022-07-15T11:15:15;101439.91;;;29.83;25.67
62926;BME280;55732;52.248;-0.844;2022-07-15T11:17:47;101430.58;;;29.74;25.78
62926;BME280;55732;52.248;-0.844;2022-07-15T11:20:17;101430.16;;;29.77;25.74
62926;BME280;55732;52.248;-0.844;2022-07-15T11:22:52;101430.41;;;29.60;25.94
62926;BME280;55732;52.248;-0.844;2022-07-15T11:30:20;101425.83;;;28.98;26.74
62926;BME280;55732;52.248;-0.844;2022-07-15T11:32:54;101423.66;;;28.86;26.71
62926;BME280;55732;52.248;-0.844;2022-07-15T11:35:20;101427.51;;;28.80;27.24
62926;BME280;55732;52.248;-0.844;2022-07-15T11:37:46;101426.84;;;28.85;27.50
62926;BME280;55732;52.248;-0.844;2022-07-15T11:40:12;101424.54;;;28.92;27.47
62926;BME280;55732;52.248;-0.844;2022-07-15T11:42:59;101418.58;;;28.75;27.75
62926;BME280;55732;52.248;-0.844;2022-07-15T11:45:43;101420.88;;;28.44;28.36
62926;BME280;55732;52.248;-0.844;2022-07-15T11:48:08;101418.24;;;28.31;28.53
62926;BME280;55732;52.248;-0.844;2022-07-15T11:50:39;101423.02;;;28.45;28.47
62926;BME280;55732;52.248;-0.844;2022-07-15T11:53:14;101424.14;;;28.64;28.41
62926;BME280;55732;52.248;-0.844;2022-07-15T11:55:57;101419.80;;;28.58;28.39
62926;BME280;55732;52.248;-0.844;2022-07-15T11:58:38;101421.08;;;28.41;28.52
62926;BME280;55732;52.248;-0.844;2022-07-15T12:01:16;101421.23;;;28.35;28.55
62926;BME280;55732;52.248;-0.844;2022-07-15T12:03:48;101419.43;;;28.58;28.42
62926;BME280;55732;52.248;-0.844;2022-07-15T12:06:15;101418.64;;;28.54;28.62
62926;BME280;55732;52.248;-0.844;2022-07-15T12:08:51;101414.64;;;28.34;28.85
62926;BME280;55732;52.248;-0.844;2022-07-15T12:13:48;101407.91;;;28.63;28.71
62926;BME280;55732;52.248;-0.844;2022-07-15T12:16:18;101406.64;;;28.49;29.15
62926;BME280;55732;52.248;-0.844;2022-07-15T12:18:45;101407.54;;;28.23;29.09
62926;BME280;55732;52.248;-0.844;2022-07-15T12:21:11;101407.00;;;28.34;29.33
62926;BME280;55732;52.248;-0.844;2022-07-15T12:23:37;101398.90;;;28.45;29.05
62926;BME280;55732;52.248;-0.844;2022-07-15T12:26:09;101401.24;;;28.62;29.03
62926;BME280;55732;52.248;-0.844;2022-07-15T12:28:36;101403.35;;;28.46;29.25
62926;BME280;55732;52.248;-0.844;2022-07-15T12:31:03;101404.75;;;28.38;29.17
62926;BME280;55732;52.248;-0.844;2022-07-15T12:33:36;101405.08;;;28.45;29.31
62926;BME280;55732;52.248;-0.844;2022-07-15T12:36:13;101402.26;;;28.35;29.44
62926;BME280;55732;52.248;-0.844;2022-07-15T12:38:38;101404.86;;;28.42;29.85
62926;BME280;55732;52.248;-0.844;2022-07-15T12:41:09;101404.98;;;28.52;29.54
62926;BME280;55732;52.248;-0.844;2022-07-15T12:46:15;101416.45;;;28.42;29.26
62926;BME280;55732;52.248;-0.844;2022-07-15T12:48:45;101407.29;;;28.32;29.31
62926;BME280;55732;52.248;-0.844;2022-07-15T12:51:12;101406.84;;;28.49;29.28
62926;BME280;55732;52.248;-0.844;2022-07-15T12:53:38;101403.81;;;28.47;29.03
62926;BME280;55732;52.248;-0.844;2022-07-15T12:56:04;101399.86;;;28.29;29.30
62926;BME280;55732;52.248;-0.844;2022-07-15T12:58:31;101398.38;;;28.10;29.57
62926;BME280;55732;52.248;-0.844;2022-07-15T13:01:26;101399.55;;;27.88;29.83
62926;BME280;55732;52.248;-0.844;2022-07-15T13:03:51;101391.11;;;27.95;29.84
62926;BME280;55732;52.248;-0.844;2022-07-15T13:06:17;101387.67;;;28.16;29.88
62926;BME280;55732;52.248;-0.844;2022-07-15T13:08:44;101386.64;;;28.27;29.67
62926;BME280;55732;52.248;-0.844;2022-07-15T13:11:09;101389.31;;;28.13;29.54
62926;BME280;55732;52.248;-0.844;2022-07-15T13:13:37;101398.02;;;27.83;29.80
62926;BME280;55732;52.248;-0.844;2022-07-15T13:16:04;101393.96;;;27.63;29.81
62926;BME280;55732;52.248;-0.844;2022-07-15T13:18:31;101391.41;;;27.45;30.04
62926;BME280;55732;52.248;-0.844;2022-07-15T13:20:58;101387.88;;;27.34;30.29
62926;BME280;55732;52.248;-0.844;2022-07-15T13:23:24;101386.97;;;27.24;30.16
62926;BME280;55732;52.248;-0.844;2022-07-15T13:25:51;101387.14;;;27.15;30.63